createdAt,value
2018-07-31T00:01:47.864Z,8.73
2018-07-31T00:04:18.383Z,9.67
2018-07-31T00:06:48.914Z,9.47
2018-07-31T00:09:19.298Z,9.60
2018-07-31T00:11:49.820Z,9.77
2018-07-31T00:14:20.250Z,9.17
2018-07-31T00:16:50.748Z,9.53
2018-07-31T00:19:21.220Z,8.93
2018-07-31T00:21:51.590Z,9.03
2018-07-31T00:24:22.151Z,9.93
2018-07-31T00:26:52.587Z,9.20
2018-07-31T00:29:22.991Z,9.07
2018-07-31T00:31:53.384Z,9.00
2018-07-31T00:34:23.816Z,9.43
2018-07-31T00:36:54.283Z,8.77
2018-07-31T00:39:24.655Z,9.70
2018-07-31T00:41:55.078Z,10.30
2018-07-31T00:44:25.550Z,11.00
2018-07-31T00:46:55.975Z,10.70
2018-07-31T00:49:26.350Z,10.93
2018-07-31T00:51:56.852Z,11.00
2018-07-31T00:54:27.276Z,10.97
2018-07-31T00:56:57.659Z,10.97
2018-07-31T00:59:28.128Z,11.13
2018-07-31T01:01:58.664Z,11.30
2018-07-31T01:04:29.156Z,11.43
2018-07-31T01:06:59.604Z,10.90
2018-07-31T01:09:30.085Z,11.23
2018-07-31T01:12:00.591Z,11.80
2018-07-31T01:14:31.096Z,11.27
2018-07-31T01:17:01.615Z,10.83
2018-07-31T01:19:32.035Z,10.80
2018-07-31T01:22:02.580Z,10.87
2018-07-31T01:24:33.042Z,11.20
2018-07-31T01:27:03.490Z,11.03
2018-07-31T01:29:33.899Z,10.67
2018-07-31T01:32:04.356Z,9.93
2018-07-31T01:34:34.854Z,11.33
2018-07-31T01:37:05.315Z,11.13
2018-07-31T01:39:35.767Z,10.77
2018-07-31T01:42:06.301Z,10.80
2018-07-31T01:44:36.735Z,10.37
2018-07-31T01:47:07.242Z,11.63
2018-07-31T01:49:37.684Z,10.63
2018-07-31T01:52:08.244Z,11.23
2018-07-31T01:54:38.652Z,11.30
2018-07-31T01:57:09.243Z,11.87
2018-07-31T01:59:39.818Z,12.20
2018-07-31T02:02:10.292Z,11.07
2018-07-31T02:04:40.709Z,12.00
2018-07-31T02:07:11.148Z,11.37
2018-07-31T02:09:41.599Z,11.27
2018-07-31T02:12:11.982Z,10.77
2018-07-31T02:14:42.498Z,11.70
2018-07-31T02:17:12.915Z,10.97
2018-07-31T02:19:43.395Z,10.57
2018-07-31T02:22:13.827Z,10.97
2018-07-31T02:24:44.311Z,11.53
2018-07-31T02:27:14.743Z,10.93
2018-07-31T02:29:50.183Z,10.77
2018-07-31T02:32:20.647Z,10.80
2018-07-31T02:34:51.089Z,11.00
2018-07-31T02:37:21.614Z,11.30
2018-07-31T02:39:51.995Z,10.67
2018-07-31T02:42:22.429Z,11.10
2018-07-31T02:44:52.862Z,11.57
2018-07-31T02:47:23.338Z,10.57
2018-07-31T02:49:53.837Z,11.27
2018-07-31T02:52:24.399Z,11.03
2018-07-31T02:54:54.892Z,12.20
2018-07-31T02:57:25.300Z,11.00
2018-07-31T02:59:55.724Z,10.87
2018-07-31T03:02:26.107Z,11.07
2018-07-31T03:04:56.590Z,10.40
2018-07-31T03:07:26.976Z,10.50
2018-07-31T03:09:57.534Z,10.97
2018-07-31T03:12:28.020Z,12.00
2018-07-31T03:14:58.477Z,11.63
2018-07-31T03:17:28.890Z,11.33
2018-07-31T03:19:59.263Z,11.87
2018-07-31T03:22:29.751Z,12.37
2018-07-31T03:25:00.250Z,11.20
2018-07-31T03:27:30.694Z,11.30
2018-07-31T03:30:01.104Z,11.50
2018-07-31T03:32:31.533Z,11.30
2018-07-31T03:35:01.960Z,10.13
2018-07-31T03:37:32.480Z,10.10
2018-07-31T03:40:02.943Z,11.07
2018-07-31T03:42:33.356Z,10.80
2018-07-31T03:45:03.940Z,11.17
2018-07-31T03:47:34.549Z,12.47
2018-07-31T03:50:05.266Z,11.40
2018-07-31T03:52:35.659Z,11.47
2018-07-31T03:55:06.244Z,12.40
2018-07-31T03:57:36.675Z,10.87
2018-07-31T04:00:07.732Z,11.03
2018-07-31T04:02:38.183Z,12.20
2018-07-31T04:05:08.679Z,11.40
2018-07-31T04:07:39.164Z,11.80
2018-07-31T04:10:09.559Z,11.43
2018-07-31T04:12:39.996Z,11.77
2018-07-31T04:15:10.411Z,11.00
2018-07-31T04:17:40.841Z,11.53
2018-07-31T04:20:11.243Z,12.33
2018-07-31T04:22:41.753Z,12.43
2018-07-31T04:25:12.181Z,11.47
2018-07-31T04:27:42.691Z,11.50
2018-07-31T04:30:13.212Z,12.00
2018-07-31T04:32:43.636Z,11.77
2018-07-31T04:35:14.136Z,11.07
2018-07-31T04:37:44.587Z,12.00
2018-07-31T04:40:15.077Z,12.37
2018-07-31T04:42:45.495Z,10.80
2018-07-31T04:45:15.987Z,11.17
2018-07-31T04:47:46.469Z,11.00
2018-07-31T04:50:16.865Z,10.87
2018-07-31T04:52:47.293Z,10.63
2018-07-31T04:55:17.826Z,11.07
2018-07-31T04:57:48.309Z,11.97
2018-07-31T05:00:18.831Z,10.63
2018-07-31T05:02:49.196Z,10.13
2018-07-31T05:05:19.730Z,9.80
2018-07-31T05:07:50.115Z,9.60
2018-07-31T05:10:20.574Z,9.80
2018-07-31T05:12:51.043Z,10.03
2018-07-31T05:15:21.698Z,10.03
2018-07-31T05:17:52.245Z,10.07
2018-07-31T05:20:22.664Z,10.63
2018-07-31T05:22:53.689Z,10.37
2018-07-31T05:25:24.249Z,9.57
2018-07-31T05:27:54.631Z,8.97
2018-07-31T05:30:25.124Z,8.67
2018-07-31T05:32:55.657Z,9.10
2018-07-31T05:35:26.140Z,8.70
2018-07-31T05:37:56.677Z,9.10
2018-07-31T05:40:27.145Z,10.30
2018-07-31T05:42:57.575Z,10.60
2018-07-31T05:45:28.032Z,8.90
2018-07-31T05:47:58.395Z,8.80
2018-07-31T05:50:28.850Z,8.80
2018-07-31T05:52:59.209Z,8.30
2018-07-31T05:55:29.633Z,8.60
2018-07-31T05:58:00.010Z,9.00
2018-07-31T06:00:30.507Z,7.47
2018-07-31T06:03:00.919Z,7.27
2018-07-31T06:05:31.681Z,8.50
2018-07-31T06:08:02.079Z,8.63
2018-07-31T06:10:32.560Z,8.63
2018-07-31T06:13:02.966Z,9.20
2018-07-31T06:15:33.420Z,7.70
2018-07-31T06:18:03.867Z,8.00
2018-07-31T06:20:34.281Z,10.50
2018-07-31T06:23:04.789Z,9.27
2018-07-31T06:25:35.386Z,7.90
2018-07-31T06:28:05.939Z,7.37
2018-07-31T06:30:36.400Z,8.77
2018-07-31T06:33:06.942Z,7.30
2018-07-31T06:35:37.315Z,8.77
2018-07-31T06:38:07.917Z,7.80
2018-07-31T06:40:38.363Z,8.57
2018-07-31T06:43:08.891Z,9.00
2018-07-31T06:45:39.416Z,8.50
2018-07-31T06:48:09.944Z,8.73
2018-07-31T06:50:40.443Z,7.90
2018-07-31T06:53:10.971Z,7.60
2018-07-31T06:55:41.516Z,7.70
2018-07-31T06:58:12.191Z,7.23
2018-07-31T07:00:42.689Z,7.90
2018-07-31T07:03:13.160Z,7.10
2018-07-31T07:05:43.643Z,6.67
2018-07-31T07:08:14.086Z,7.63
2018-07-31T07:10:44.482Z,6.63
2018-07-31T07:13:14.975Z,6.53
2018-07-31T07:15:45.531Z,7.43
2018-07-31T07:18:16.168Z,7.10
2018-07-31T07:20:46.787Z,7.50
2018-07-31T07:23:17.344Z,6.80
2018-07-31T07:25:47.928Z,7.13
2018-07-31T07:28:18.406Z,7.70
2018-07-31T07:30:48.984Z,7.20
2018-07-31T07:33:19.480Z,6.40
2018-07-31T07:35:49.998Z,6.97
2018-07-31T07:38:20.611Z,7.93
2018-07-31T07:40:51.340Z,7.03
2018-07-31T07:43:21.836Z,7.90
2018-07-31T07:45:52.375Z,7.70
2018-07-31T07:48:22.979Z,7.23
2018-07-31T07:50:54.119Z,6.60
2018-07-31T07:53:24.730Z,8.17
2018-07-31T07:55:55.324Z,7.57
2018-07-31T07:58:25.816Z,7.17
2018-07-31T08:00:56.355Z,5.93
2018-07-31T08:03:26.907Z,7.70
2018-07-31T08:05:57.439Z,7.23
2018-07-31T08:08:28.525Z,7.37
2018-07-31T08:11:00.291Z,7.60
2018-07-31T08:13:31.046Z,6.73
2018-07-31T08:16:01.483Z,6.47
2018-07-31T08:18:32.143Z,8.77
2018-07-31T08:21:02.681Z,6.83
2018-07-31T08:23:33.209Z,6.67
2018-07-31T08:26:03.711Z,8.03
2018-07-31T08:28:34.252Z,9.07
2018-07-31T08:31:04.779Z,7.77
2018-07-31T08:33:35.415Z,6.53
2018-07-31T08:36:06.047Z,6.63
2018-07-31T08:38:36.591Z,8.30
2018-07-31T08:41:07.127Z,7.13
2018-07-31T08:43:37.662Z,6.57
2018-07-31T08:46:08.256Z,7.60
2018-07-31T08:48:38.811Z,5.60
2018-07-31T08:51:09.465Z,6.10
2018-07-31T08:53:39.999Z,6.27
2018-07-31T08:56:10.487Z,6.60
2018-07-31T08:58:41.164Z,7.97
2018-07-31T09:01:11.591Z,6.70
2018-07-31T09:03:42.112Z,7.77
2018-07-31T09:06:12.530Z,7.30
2018-07-31T09:08:43.068Z,7.03
2018-07-31T09:11:13.442Z,7.07
2018-07-31T09:13:43.926Z,6.80
2018-07-31T09:16:14.335Z,6.57
2018-07-31T09:18:44.819Z,7.17
2018-07-31T09:21:15.259Z,6.77
2018-07-31T09:23:45.764Z,6.63
2018-07-31T09:26:16.176Z,6.70
2018-07-31T09:28:46.666Z,8.17
2018-07-31T09:31:19.022Z,6.23
2018-07-31T09:33:49.523Z,6.50
2018-07-31T09:36:20.099Z,6.23
2018-07-31T09:38:50.840Z,6.23
2018-07-31T09:41:21.885Z,7.60
2018-07-31T09:43:52.579Z,6.23
2018-07-31T09:46:23.148Z,7.23
2018-07-31T09:48:54.381Z,6.87
2018-07-31T09:51:24.814Z,6.57
2018-07-31T09:53:55.318Z,7.53
2018-07-31T09:56:25.723Z,6.43
2018-07-31T09:58:56.521Z,6.13
2018-07-31T10:01:26.951Z,7.70
2018-07-31T10:03:57.412Z,7.23
2018-07-31T10:06:27.791Z,6.20
2018-07-31T10:08:58.319Z,6.63
2018-07-31T10:11:28.807Z,7.00
2018-07-31T10:13:59.342Z,6.17
2018-07-31T10:16:29.744Z,6.67
2018-07-31T10:19:00.415Z,6.50
2018-07-31T10:21:30.827Z,6.43
2018-07-31T10:24:01.400Z,7.00
2018-07-31T10:26:31.999Z,7.70
2018-07-31T10:29:02.498Z,7.30
2018-07-31T10:31:33.032Z,7.10
2018-07-31T10:34:03.684Z,7.53
2018-07-31T10:36:34.188Z,6.67
2018-07-31T10:39:06.460Z,7.40
2018-07-31T10:41:37.155Z,6.50
2018-07-31T10:44:07.816Z,6.70
2018-07-31T10:46:38.242Z,6.20
2018-07-31T10:49:08.839Z,6.00
2018-07-31T10:51:39.290Z,6.50
2018-07-31T10:54:09.988Z,7.73
2018-07-31T10:56:40.658Z,5.90
2018-07-31T10:59:11.263Z,6.70
2018-07-31T11:01:41.716Z,5.97
2018-07-31T11:04:12.335Z,5.83
2018-07-31T11:06:42.802Z,5.60
2018-07-31T11:09:13.254Z,7.93
2018-07-31T11:11:43.793Z,6.57
2018-07-31T11:14:14.354Z,6.13
2018-07-31T11:16:45.078Z,6.53
2018-07-31T11:19:15.483Z,7.07
2018-07-31T11:21:45.994Z,5.30
2018-07-31T11:24:16.448Z,5.20
2018-07-31T11:26:47.044Z,5.07
2018-07-31T11:29:17.574Z,6.47
2018-07-31T11:31:48.044Z,10.17
2018-07-31T11:34:18.603Z,5.90
2018-07-31T11:36:49.188Z,8.67
2018-07-31T11:39:19.687Z,4.60
2018-07-31T11:41:50.277Z,5.27
2018-07-31T11:44:20.735Z,5.23
2018-07-31T11:46:51.162Z,5.17
2018-07-31T11:49:21.646Z,4.90
2018-07-31T11:51:52.213Z,5.80
2018-07-31T11:54:22.742Z,4.97
2018-07-31T11:56:53.411Z,6.60
2018-07-31T11:59:23.920Z,5.87
2018-07-31T12:01:54.556Z,6.13
2018-07-31T12:04:25.040Z,5.20
2018-07-31T12:06:55.467Z,5.33
2018-07-31T12:09:26.000Z,5.37
2018-07-31T12:11:56.485Z,4.90
2018-07-31T12:14:26.923Z,3.90
2018-07-31T12:16:58.658Z,4.40
2018-07-31T12:19:29.064Z,5.20
2018-07-31T12:21:59.596Z,3.90
2018-07-31T12:24:29.980Z,3.47
2018-07-31T12:27:00.471Z,3.80
2018-07-31T12:29:31.036Z,5.00
2018-07-31T12:32:01.533Z,2.73
2018-07-31T12:34:32.052Z,4.13
2018-07-31T12:37:02.456Z,3.63
2018-07-31T12:39:32.920Z,2.90
2018-07-31T12:42:03.340Z,3.40
2018-07-31T12:44:33.767Z,3.03
2018-07-31T12:47:04.444Z,3.53
2018-07-31T12:49:34.975Z,2.90
2018-07-31T12:52:05.449Z,3.33
2018-07-31T12:54:35.924Z,3.00
2018-07-31T12:57:06.511Z,3.47
2018-07-31T12:59:36.946Z,3.40
2018-07-31T13:02:07.403Z,3.13
2018-07-31T13:04:37.843Z,3.60
2018-07-31T13:07:08.255Z,3.20
2018-07-31T13:09:39.090Z,2.87
2018-07-31T13:12:10.594Z,2.50
2018-07-31T13:14:41.144Z,3.47
2018-07-31T13:17:13.763Z,3.40
2018-07-31T13:19:44.547Z,3.33
2018-07-31T13:22:15.164Z,3.30
2018-07-31T13:24:45.736Z,2.90
2018-07-31T13:27:16.211Z,3.10
2018-07-31T13:29:46.985Z,3.37
2018-07-31T13:32:17.572Z,3.77
2018-07-31T13:34:48.156Z,3.67
2018-07-31T13:37:18.671Z,3.50
2018-07-31T13:39:49.199Z,3.80
2018-07-31T13:42:19.823Z,3.70
2018-07-31T13:44:50.401Z,3.67
2018-07-31T13:47:20.931Z,3.77
2018-07-31T13:49:51.431Z,3.83
2018-07-31T13:52:22.907Z,3.87
2018-07-31T13:54:53.413Z,3.77
2018-07-31T13:57:23.923Z,3.60
2018-07-31T13:59:54.434Z,4.33
2018-07-31T14:02:25.012Z,4.43
2018-07-31T14:04:55.527Z,4.30
2018-07-31T14:07:25.975Z,4.23
2018-07-31T14:09:56.500Z,4.50
2018-07-31T14:12:27.037Z,4.37
2018-07-31T14:14:57.547Z,4.60
2018-07-31T14:17:28.125Z,4.30
2018-07-31T14:19:58.603Z,4.20
2018-07-31T14:22:29.095Z,4.27
2018-07-31T14:24:59.566Z,4.67
2018-07-31T14:27:30.153Z,4.77
2018-07-31T14:30:00.684Z,4.50
2018-07-31T14:32:31.589Z,6.33
2018-07-31T14:35:02.051Z,6.30
2018-07-31T14:37:32.444Z,6.40
2018-07-31T14:40:02.868Z,6.30
2018-07-31T14:42:33.291Z,6.23
2018-07-31T14:45:03.815Z,6.10
2018-07-31T14:47:34.221Z,6.03
2018-07-31T14:50:05.239Z,5.70
2018-07-31T14:52:35.698Z,5.70
2018-07-31T14:55:06.422Z,5.30
2018-07-31T14:57:36.872Z,5.83
2018-07-31T15:00:08.045Z,5.80
2018-07-31T15:02:38.509Z,5.33
2018-07-31T15:05:08.949Z,5.07
2018-07-31T15:07:39.416Z,5.80
2018-07-31T15:10:10.132Z,5.17
2018-07-31T15:12:40.571Z,5.07
2018-07-31T15:15:10.944Z,5.50
2018-07-31T15:17:41.487Z,5.40
2018-07-31T15:20:11.887Z,5.30
2018-07-31T15:22:42.451Z,5.83
2018-07-31T15:25:12.858Z,5.57
2018-07-31T15:27:43.340Z,5.67
2018-07-31T15:30:13.824Z,5.30
2018-07-31T15:32:44.300Z,5.50
2018-07-31T15:35:14.756Z,5.43
2018-07-31T15:37:45.200Z,6.00
2018-07-31T15:40:15.604Z,6.07
2018-07-31T15:42:46.060Z,5.83
2018-07-31T15:45:16.436Z,5.97
2018-07-31T15:47:46.871Z,6.47
2018-07-31T15:50:17.295Z,5.93
2018-07-31T15:52:47.794Z,5.37
2018-07-31T15:55:18.284Z,6.33
2018-07-31T15:57:48.828Z,6.10
2018-07-31T16:00:19.216Z,6.10
2018-07-31T16:02:49.644Z,5.50
2018-07-31T16:05:20.042Z,6.13
2018-07-31T16:07:50.463Z,5.60
2018-07-31T16:10:20.851Z,5.53
2018-07-31T16:12:51.314Z,5.77
2018-07-31T16:15:21.791Z,5.67
2018-07-31T16:17:52.215Z,5.60
2018-07-31T16:20:22.712Z,5.77
2018-07-31T16:22:53.172Z,5.17
2018-07-31T16:25:23.628Z,5.10
2018-07-31T16:27:54.148Z,5.10
2018-07-31T16:30:24.597Z,5.17
2018-07-31T16:32:55.060Z,5.53
2018-07-31T16:35:25.522Z,5.50
2018-07-31T16:37:55.947Z,6.43
2018-07-31T16:40:26.384Z,6.33
2018-07-31T16:42:56.858Z,6.17
2018-07-31T16:45:27.414Z,5.73
2018-07-31T16:47:57.921Z,6.50
2018-07-31T16:50:28.297Z,7.13
2018-07-31T16:52:58.803Z,6.30
2018-07-31T16:55:29.234Z,6.67
2018-07-31T16:57:59.599Z,6.70
2018-07-31T17:00:30.030Z,6.20
2018-07-31T17:03:00.407Z,6.37
2018-07-31T17:05:30.861Z,5.87
2018-07-31T17:08:01.251Z,6.00
2018-07-31T17:10:31.736Z,6.77
2018-07-31T17:13:02.176Z,6.10
2018-07-31T17:15:32.596Z,5.93
2018-07-31T17:18:03.015Z,6.20
2018-07-31T17:20:33.503Z,6.67
2018-07-31T17:23:03.888Z,6.73
2018-07-31T17:25:34.331Z,6.80
2018-07-31T17:28:04.768Z,6.40
2018-07-31T17:30:35.147Z,6.30
2018-07-31T17:33:05.596Z,6.13
2018-07-31T17:35:36.039Z,6.63
2018-07-31T17:38:06.740Z,5.50
2018-07-31T17:40:37.143Z,6.13
2018-07-31T17:43:07.564Z,5.90
2018-07-31T17:45:37.935Z,6.37
2018-07-31T17:48:08.400Z,5.73
2018-07-31T17:50:38.783Z,6.20
2018-07-31T17:53:09.183Z,6.60
2018-07-31T17:55:39.585Z,6.30
2018-07-31T17:58:10.039Z,6.77
2018-07-31T18:00:40.402Z,6.07
2018-07-31T18:03:10.854Z,6.20
2018-07-31T18:05:41.278Z,6.73
2018-07-31T18:08:11.691Z,6.50
2018-07-31T18:10:42.075Z,6.93
2018-07-31T18:13:12.568Z,6.97
2018-07-31T18:15:43.034Z,7.23
2018-07-31T18:18:13.507Z,6.90
2018-07-31T18:20:43.899Z,7.47
2018-07-31T18:23:14.391Z,7.53
2018-07-31T18:25:44.759Z,7.13
2018-07-31T18:28:15.216Z,7.03
2018-07-31T18:30:45.717Z,6.63
2018-07-31T18:33:16.151Z,7.80
2018-07-31T18:35:46.564Z,7.60
2018-07-31T18:38:17.082Z,7.63
2018-07-31T18:40:47.532Z,7.37
2018-07-31T18:43:17.921Z,6.70
2018-07-31T18:45:48.520Z,7.07
2018-07-31T18:48:18.968Z,7.10
2018-07-31T18:50:49.391Z,7.23
2018-07-31T18:53:19.806Z,6.83
2018-07-31T18:55:50.200Z,6.80
2018-07-31T18:58:20.567Z,7.33
2018-07-31T19:00:51.025Z,7.03
2018-07-31T19:03:21.534Z,6.93
2018-07-31T19:05:51.923Z,6.50
2018-07-31T19:08:22.387Z,7.13
2018-07-31T19:10:52.793Z,9.00
2018-07-31T19:13:23.195Z,7.10
2018-07-31T19:15:53.650Z,7.20
2018-07-31T19:18:24.151Z,6.90
2018-07-31T19:20:54.669Z,6.90
2018-07-31T19:23:25.109Z,7.20
2018-07-31T19:25:55.580Z,7.67
2018-07-31T19:28:25.943Z,6.67
2018-07-31T19:30:56.351Z,6.60
2018-07-31T19:33:26.873Z,6.63
2018-07-31T19:35:57.267Z,6.53
2018-07-31T19:38:27.715Z,6.30
2018-07-31T19:40:58.160Z,7.20
2018-07-31T19:43:28.621Z,7.07
2018-07-31T19:45:59.013Z,6.93
2018-07-31T19:48:29.439Z,6.57
2018-07-31T19:50:59.828Z,6.57
2018-07-31T19:53:30.252Z,6.93
2018-07-31T19:56:00.702Z,6.60
2018-07-31T19:58:31.180Z,7.27
2018-07-31T20:01:01.681Z,7.10
2018-07-31T20:03:32.145Z,6.60
2018-07-31T20:06:02.639Z,6.90
2018-07-31T20:08:33.064Z,7.43
2018-07-31T20:11:03.552Z,7.33
2018-07-31T20:13:33.933Z,6.80
2018-07-31T20:16:05.054Z,7.57
2018-07-31T20:18:35.731Z,6.70
2018-07-31T20:21:06.154Z,7.00
2018-07-31T20:23:36.588Z,7.97
2018-07-31T20:26:07.224Z,7.20
2018-07-31T20:28:37.660Z,7.80
2018-07-31T20:31:08.104Z,7.63
2018-07-31T20:33:38.657Z,7.50
2018-07-31T20:36:09.096Z,7.70
2018-07-31T20:38:39.603Z,8.10
2018-07-31T20:41:10.012Z,7.37
2018-07-31T20:43:40.404Z,7.80
2018-07-31T20:46:10.872Z,7.20
2018-07-31T20:48:41.238Z,7.40
2018-07-31T20:51:11.707Z,6.97
2018-07-31T20:53:42.247Z,6.90
2018-07-31T20:56:12.771Z,6.90
2018-07-31T20:58:43.243Z,7.07
2018-07-31T21:01:13.900Z,6.77
2018-07-31T21:03:44.370Z,6.87
2018-07-31T21:06:14.845Z,7.00
2018-07-31T21:08:45.286Z,7.17
2018-07-31T21:11:15.923Z,6.93
2018-07-31T21:13:46.366Z,6.40
2018-07-31T21:16:16.858Z,6.23
2018-07-31T21:18:47.218Z,6.47
2018-07-31T21:21:17.700Z,6.50
2018-07-31T21:23:48.208Z,6.43
2018-07-31T21:26:18.616Z,6.97
2018-07-31T21:28:48.993Z,7.13
2018-07-31T21:31:19.417Z,7.10
2018-07-31T21:33:49.915Z,7.10
2018-07-31T21:36:20.323Z,6.60
2018-07-31T21:38:50.740Z,6.73
2018-07-31T21:41:21.229Z,7.70
2018-07-31T21:43:51.812Z,7.50
2018-07-31T21:46:22.335Z,7.13
2018-07-31T21:48:52.865Z,9.83
2018-07-31T21:51:23.305Z,23.07
2018-07-31T21:53:53.719Z,10.90
2018-07-31T21:56:24.076Z,8.57
2018-07-31T21:58:54.507Z,7.90
2018-07-31T22:01:24.927Z,26.33
2018-07-31T22:03:55.433Z,17.63
2018-07-31T22:06:25.884Z,11.20
2018-07-31T22:08:56.298Z,8.03
2018-07-31T22:11:26.687Z,6.33
2018-07-31T22:13:57.166Z,7.63
2018-07-31T22:16:27.556Z,7.43
2018-07-31T22:18:58.039Z,7.63
2018-07-31T22:21:28.414Z,7.20
2018-07-31T22:23:58.850Z,7.43
2018-07-31T22:26:29.288Z,7.97
2018-07-31T22:28:59.715Z,7.47
2018-07-31T22:31:30.084Z,7.30
2018-07-31T22:34:00.575Z,8.27
2018-07-31T22:36:30.947Z,8.23
2018-07-31T22:39:01.373Z,8.27
2018-07-31T22:41:31.850Z,7.83
2018-07-31T22:44:02.218Z,8.13
2018-07-31T22:46:32.671Z,8.63
2018-07-31T22:49:03.227Z,8.10
2018-07-31T22:51:33.740Z,9.00
2018-07-31T22:54:04.230Z,8.80
2018-07-31T22:56:34.731Z,8.30
2018-07-31T22:59:05.159Z,8.70
2018-07-31T23:01:35.631Z,7.97
2018-07-31T23:04:06.101Z,7.53
2018-07-31T23:06:36.543Z,8.60
2018-07-31T23:09:09.500Z,7.73
2018-07-31T23:11:39.959Z,7.27
2018-07-31T23:14:10.537Z,7.17
2018-07-31T23:16:40.970Z,7.20
2018-07-31T23:19:11.373Z,6.67
2018-07-31T23:21:41.827Z,7.10
2018-07-31T23:24:12.264Z,7.47
2018-07-31T23:26:42.724Z,7.90
2018-07-31T23:29:13.146Z,7.77
2018-07-31T23:31:43.608Z,8.10
2018-07-31T23:34:14.070Z,7.40
2018-07-31T23:36:44.572Z,7.83
2018-07-31T23:39:15.016Z,8.33
2018-07-31T23:41:45.435Z,8.00
2018-07-31T23:44:15.812Z,7.50
2018-07-31T23:46:46.308Z,7.80
2018-07-31T23:49:16.719Z,7.73
2018-07-31T23:51:47.176Z,7.73
2018-07-31T23:54:17.565Z,8.87
2018-07-31T23:56:48.019Z,7.50
2018-07-31T23:59:18.443Z,7.37
